Airfield :
LOGIN :

Register | Disclaimer

   EN    FR    IT 

 










Legend :    VFR   Marginal VFR   IFR   Intensive IFR   Very Intensive IFR
Visi :
Ceiling :
>= 8 km
>= 3000ft
5 to 8 km
1000 to 3000 ft
1500m to 5 km
500 to 1000 ft
800 to 1500m
200 to 500 ft
< 800m
< 200 ft
Symbols :   Thunderstorms  Fog  Heavy snow  Heavy precipitations  Wind > 20 kt
SIGMETs :     Misc.  Thunderstorms  Icing  Turbulence  Mountain Waves  Volcanic Ashes







- Airport Elevation : 300 ft
- IATA code : MLA


LMML - Malta Luqa

CURRENT METAR :
  • 180715Z 35013KT 9999 FEW030 13/04 Q1021 NOSIG

EXPIRED METARs :
  • 180645Z 36013KT 9999 FEW030 12/04 Q1021 NOSIG
  • 180615Z 35012KT 9999 FEW030 12/05 Q1020 NOSIG
  • 180545Z 34011KT 310V020 9999 FEW034 12/05 Q1020 NOSIG
  • 180515Z 36014KT 9999 FEW034 12/04 Q1020 NOSIG
  • 180445Z 34010KT 9999 FEW034 11/05 Q1019 NOSIG

TAF TAF LMML
Valid from the 18 at 06:00 until the 19 at 06:00 UTC


180500Z 1806/1906 34017KT 9999 FEW030
BECMG 1814/1817 31007KT
BECMG 1902/1905 25008KT
No reported NOTAMs for that airfield.



MET'MAP, your aeronautical weather chart ! - Copyright ORBIFLY December 2007 - Disclaimer

ORBIFLY MET'MAP TEAM :

Programming & Development : Alexandra Zaïnal
Concept & Development : Baudouin d'Aumeries
Co-Development & Prog : Marc-Olivier Méhu
Technical & hardware support : Manuel Goepfert

Contact : metmap@orbifly.com




SOURCES & CREDITS :

   NOAA